METAR Data
IDs: Format: Raw Decoded Include TAF

Data at: 0243 UTC 29 Nov 2020

METAR for:KCKP (Cherokee Cnty, IA, US)
Text:KCKP 290235Z AUTO 00000KT 10SM CLR 01/M01 A2996 RMK AO2 T00131010
Temperature: 1.3°C ( 34°F)
Dewpoint: -1.0°C ( 30°F) [RH = 85%]
Pressure (altimeter):29.96 inches Hg (1014.6 mb)
Winds:calm
Visibility:10 or more sm (16+ km)
Ceiling:at least 12,000 feet AGL
Clouds:sky clear below 12,000 feet AGL
QC Flag:automated observation with no human augmentation